Time;durP1;ratioP1;P1;durP2;ratioP2;P2;SDS_P1;SDS_P2;PMS_P1;PMS_P2;Temp;Humidity;BMP_temperature;BMP_pressure;BME280_temperature;BME280_humidity;BME280_pressure;Samples;Min_cycle;Max_cycle;Signal;HPM_P1;HPM_P2
2022/12/27 00:00:09;;;;;;;;;;;8.40;99.90;;;;;;5054287;28;20372;-79
2022/12/27 00:02:38;;;;;;;;;;;8.40;99.90;;;;;;5060813;28;19939;-77
2022/12/27 00:05:05;;;;;;;;;;;8.40;99.90;;;;;;5063820;28;20007;-78
2022/12/27 00:07:32;;;;;;;;;;;8.30;99.90;;;;;;5062854;28;19936;-77
2022/12/27 00:09:58;;;;;;;;;;;8.30;99.90;;;;;;5063753;28;19933;-78
2022/12/27 00:12:25;;;;;;;;;;;8.30;99.90;;;;;;5062352;28;20413;-78
2022/12/27 00:14:51;;;;;;;;;;;8.30;99.90;;;;;;5059470;28;20421;-77
2022/12/27 00:17:18;;;;;;;;;;;8.30;99.90;;;;;;5058140;28;19929;-79
2022/12/27 00:19:46;;;;;;;;;;;8.20;99.90;;;;;;5059284;28;19936;-80
2022/12/27 00:22:12;;;;;;;;;;;8.20;99.90;;;;;;5062495;28;19940;-77
2022/12/27 00:24:39;;;;;;;;;;;8.20;99.90;;;;;;5062161;28;20291;-79
2022/12/27 00:27:06;;;;;;;;;;;8.20;99.90;;;;;;5057356;28;20491;-79
2022/12/27 00:29:32;;;;;;;;;;;8.10;99.90;;;;;;5059294;28;20282;-77
2022/12/27 00:31:59;;;;;;;;;;;8.10;99.90;;;;;;5059928;28;19940;-79
2022/12/27 00:34:25;;;;;;;;;;;8.10;99.90;;;;;;5059840;28;19936;-80
2022/12/27 00:36:53;;;;;;;;;;;8.10;99.90;;;;;;5064213;28;19935;-78
2022/12/27 00:39:20;;;;;;;;;;;8.00;99.90;;;;;;5069984;28;19928;-78
2022/12/27 00:41:46;;;;;;;;;;;8.00;99.90;;;;;;5070843;28;19929;-78
2022/12/27 00:44:13;;;;;;;;;;;8.00;99.90;;;;;;5056935;28;19951;-79
2022/12/27 00:46:39;;;;;;;;;;;8.00;99.90;;;;;;5062808;28;20301;-77
2022/12/27 00:49:06;;;;;;;;;;;8.00;99.90;;;;;;5063008;28;20486;-79
2022/12/27 00:51:32;;;;;;;;;;;7.90;99.90;;;;;;5063268;28;19936;-76
2022/12/27 00:54:00;;;;;;;;;;;7.90;99.90;;;;;;5065670;28;19932;-77
2022/12/27 00:56:28;;;;;;;;;;;7.90;99.90;;;;;;5065572;28;19932;-78
2022/12/27 00:58:55;;;;;;;;;;;7.80;99.90;;;;;;5058354;28;20273;-80
2022/12/27 01:01:22;;;;;;;;;;;7.80;99.90;;;;;;5063223;28;19928;-77
2022/12/27 01:03:48;;;;;;;;;;;7.80;99.90;;;;;;5061438;28;19981;-77
2022/12/27 01:06:16;;;;;;;;;;;7.80;99.90;;;;;;5065840;28;19995;-79
2022/12/27 01:08:43;;;;;;;;;;;7.70;99.90;;;;;;5056044;28;19944;-79
2022/12/27 01:11:11;;;;;;;;;;;7.70;99.90;;;;;;5058750;28;19932;-79
2022/12/27 01:13:38;;;;;;;;;;;7.70;99.90;;;;;;5059345;28;20629;-79
2022/12/27 01:16:08;;;;;;;;;;;7.60;99.90;;;;;;5055067;28;20317;-77
2022/12/27 01:18:35;;;;;;;;;;;7.60;99.90;;;;;;5057877;28;19937;-77
2022/12/27 01:21:04;;;;;;;;;;;7.60;99.90;;;;;;5061616;28;19928;-77
2022/12/27 01:23:31;;;;;;;;;;;7.60;99.90;;;;;;5062761;28;20305;-76
2022/12/27 01:26:01;;;;;;;;;;;7.50;99.90;;;;;;5057970;28;19929;-77
2022/12/27 01:28:29;;;;;;;;;;;7.50;99.90;;;;;;5060957;28;19935;-77
2022/12/27 01:30:55;;;;;;;;;;;7.50;99.90;;;;;;5059550;28;20412;-76
2022/12/27 01:33:22;;;;;;;;;;;7.50;99.90;;;;;;5057738;28;21348;-78
2022/12/27 01:35:48;;;;;;;;;;;7.40;99.90;;;;;;5058933;28;19936;-76
2022/12/27 01:38:15;;;;;;;;;;;7.40;99.90;;;;;;5065549;28;19936;-75
2022/12/27 01:40:41;;;;;;;;;;;7.40;99.90;;;;;;5062371;28;20614;-77
2022/12/27 01:43:13;;;;;;;;;;;7.40;99.90;;;;;;5064122;28;19932;-77
2022/12/27 01:45:41;;;;;;;;;;;7.40;99.90;;;;;;5056721;28;19931;-76
2022/12/27 01:48:12;;;;;;;;;;;7.30;99.90;;;;;;5062273;28;20283;-78
2022/12/27 01:50:40;;;;;;;;;;;7.30;99.90;;;;;;5060730;28;19932;-77
2022/12/27 01:53:08;;;;;;;;;;;7.30;99.90;;;;;;5058050;28;19932;-77
2022/12/27 01:55:37;;;;;;;;;;;7.20;99.90;;;;;;5062136;28;20341;-76
2022/12/27 01:58:09;;;;;;;;;;;7.20;99.90;;;;;;5060104;28;19928;-77
2022/12/27 02:00:35;;;;;;;;;;;7.20;99.90;;;;;;5054000;28;20514;-77
2022/12/27 02:03:04;;;;;;;;;;;7.10;99.90;;;;;;5059756;28;19928;-77
2022/12/27 02:05:31;;;;;;;;;;;7.10;99.90;;;;;;5058992;28;19928;-80
2022/12/27 02:08:00;;;;;;;;;;;7.10;99.90;;;;;;5059549;28;19932;-76
2022/12/27 02:10:27;;;;;;;;;;;7.10;99.90;;;;;;5056281;28;19936;-76
2022/12/27 02:12:55;;;;;;;;;;;7.10;99.90;;;;;;5060066;28;19932;-77
2022/12/27 02:15:21;;;;;;;;;;;7.10;99.90;;;;;;5056018;28;19934;-77
2022/12/27 02:17:48;;;;;;;;;;;7.00;99.90;;;;;;5057321;28;19939;-77
2022/12/27 02:20:17;;;;;;;;;;;7.00;99.90;;;;;;5058359;28;19936;-77
2022/12/27 02:25:58;;;;;;;;;;;6.90;99.90;;;;;;5059449;28;19931;-76
2022/12/27 02:28:31;;;;;;;;;;;6.90;99.90;;;;;;5057787;28;19928;-78
2022/12/27 02:31:03;;;;;;;;;;;6.90;99.90;;;;;;5055290;28;19932;-77
2022/12/27 02:33:32;;;;;;;;;;;6.90;99.90;;;;;;5061873;28;19933;-79
2022/12/27 02:36:01;;;;;;;;;;;6.90;99.90;;;;;;5059688;28;19990;-77
2022/12/27 02:38:29;;;;;;;;;;;6.80;99.90;;;;;;5061876;28;19940;-77
2022/12/27 02:55:04;;;;;;;;;;;6.70;99.90;;;;;;5050257;28;19947;-77
2022/12/27 02:57:37;;;;;;;;;;;6.70;99.90;;;;;;5055759;28;19928;-79
2022/12/27 03:03:22;;;;;;;;;;;6.60;99.90;;;;;;5057657;28;19969;-77
2022/12/27 03:08:44;;;;;;;;;;;6.60;99.90;;;;;;5058849;28;20290;-78
2022/12/27 03:16:54;;;;;;;;;;;6.50;99.90;;;;;;5053047;28;20008;-78
2022/12/27 03:25:26;;;;;;;;;;;6.50;99.90;;;;;;5064165;28;19929;-78
2022/12/27 03:33:11;;;;;;;;;;;6.40;99.90;;;;;;5062079;28;20484;-78
2022/12/27 03:33:26;;;;;;;;;;;6.40;99.90;;;;;;5020935;28;20372;-79
2022/12/27 03:38:45;;;;;;;;;;;6.40;99.90;;;;;;5064684;28;20286;-76
2022/12/27 03:43:59;;;;;;;;;;;6.30;99.90;;;;;;5058621;28;20069;-77
2022/12/27 03:46:33;;;;;;;;;;;6.30;99.90;;;;;;5056429;28;19932;-79
2022/12/27 03:49:06;;;;;;;;;;;6.30;99.90;;;;;;5053569;28;20019;-77
2022/12/27 03:51:37;;;;;;;;;;;6.30;99.90;;;;;;5057669;28;19990;-77
2022/12/27 03:54:07;;;;;;;;;;;6.20;99.90;;;;;;5057112;28;20013;-78
2022/12/27 03:56:33;;;;;;;;;;;6.20;99.90;;;;;;5057233;28;19933;-75
2022/12/27 03:59:00;;;;;;;;;;;6.20;99.90;;;;;;5058062;28;20005;-78
2022/12/27 04:01:27;;;;;;;;;;;6.20;99.90;;;;;;5057943;28;19982;-78
2022/12/27 04:03:53;;;;;;;;;;;6.20;99.90;;;;;;5055489;28;19929;-80
2022/12/27 04:06:20;;;;;;;;;;;6.20;99.90;;;;;;5059500;28;19932;-78
2022/12/27 04:36:12;;;;;;;;;;;6.00;99.90;;;;;;5063021;28;19970;-78
2022/12/27 04:38:38;;;;;;;;;;;6.00;99.90;;;;;;5056904;28;20306;-80
2022/12/27 04:54:57;;;;;;;;;;;5.80;99.90;;;;;;5064432;28;20694;-78
2022/12/27 04:57:25;;;;;;;;;;;5.80;99.90;;;;;;5066155;28;19929;-78
2022/12/27 05:02:37;;;;;;;;;;;5.80;99.90;;;;;;5064759;28;19932;-78
2022/12/27 05:05:03;;;;;;;;;;;5.80;99.90;;;;;;5059341;28;20041;-77
2022/12/27 05:15:44;;;;;;;;;;;5.80;99.90;;;;;;5061557;28;20069;-78
2022/12/27 05:18:10;;;;;;;;;;;5.70;99.90;;;;;;5062658;28;19939;-77
2022/12/27 05:20:37;;;;;;;;;;;5.70;99.90;;;;;;5054532;28;19932;-79
2022/12/27 05:25:47;;;;;;;;;;;5.70;99.90;;;;;;5059509;28;20401;-78
2022/12/27 05:28:15;;;;;;;;;;;5.70;99.90;;;;;;5060023;28;19929;-78
2022/12/27 05:30:43;;;;;;;;;;;5.70;99.90;;;;;;5062142;28;19928;-77
2022/12/27 05:33:09;;;;;;;;;;;5.70;99.90;;;;;;5063521;28;19928;-79
2022/12/27 05:35:36;;;;;;;;;;;5.60;99.90;;;;;;5058625;28;20315;-78
2022/12/27 05:38:03;;;;;;;;;;;5.60;99.90;;;;;;5063861;28;19933;-77
2022/12/27 05:40:29;;;;;;;;;;;5.60;99.90;;;;;;5065591;28;19932;-79
2022/12/27 05:42:57;;;;;;;;;;;5.60;99.90;;;;;;5062319;28;19936;-77
2022/12/27 05:45:25;;;;;;;;;;;5.60;99.90;;;;;;5063397;28;19932;-78
2022/12/27 05:47:52;;;;;;;;;;;5.60;99.90;;;;;;5052362;28;19928;-80
2022/12/27 05:50:18;;;;;;;;;;;5.60;99.90;;;;;;5063845;28;19936;-77
2022/12/27 05:52:45;;;;;;;;;;;5.60;99.90;;;;;;5059180;28;19936;-79
2022/12/27 05:55:11;;;;;;;;;;;5.60;99.90;;;;;;5064945;28;20038;-78
2022/12/27 05:57:38;;;;;;;;;;;5.60;99.90;;;;;;5058646;28;19932;-79
2022/12/27 06:00:05;;;;;;;;;;;5.50;99.90;;;;;;5057438;28;19993;-78
2022/12/27 06:02:33;;;;;;;;;;;5.50;99.90;;;;;;5055485;28;19924;-79
2022/12/27 06:05:00;;;;;;;;;;;5.50;99.90;;;;;;5054023;28;19925;-77
2022/12/27 06:07:26;;;;;;;;;;;5.50;99.90;;;;;;5059812;28;19931;-77
2022/12/27 06:09:53;;;;;;;;;;;5.50;99.90;;;;;;5053745;28;19986;-79
2022/12/27 06:12:19;;;;;;;;;;;5.50;99.90;;;;;;5061286;28;20015;-78
2022/12/27 06:14:46;;;;;;;;;;;5.50;99.90;;;;;;5057727;28;19935;-77
2022/12/27 06:17:12;;;;;;;;;;;5.40;99.90;;;;;;5055302;28;19936;-77
2022/12/27 06:19:40;;;;;;;;;;;5.40;99.90;;;;;;5059472;28;20704;-80
2022/12/27 06:22:07;;;;;;;;;;;5.30;99.90;;;;;;5065216;28;20470;-78
2022/12/27 06:24:33;;;;;;;;;;;5.30;99.90;;;;;;5054526;28;19936;-78
2022/12/27 06:27:00;;;;;;;;;;;5.30;99.90;;;;;;5059655;28;19937;-80
2022/12/27 06:29:26;;;;;;;;;;;5.30;99.90;;;;;;5060170;28;19937;-78
2022/12/27 06:31:53;;;;;;;;;;;5.30;99.90;;;;;;5053081;28;19936;-80
2022/12/27 06:34:19;;;;;;;;;;;5.30;99.90;;;;;;5062667;28;19932;-78
2022/12/27 06:36:49;;;;;;;;;;;5.40;99.90;;;;;;5063942;28;19928;-78
2022/12/27 06:39:16;;;;;;;;;;;5.30;99.90;;;;;;5062746;28;19927;-80
2022/12/27 06:41:42;;;;;;;;;;;5.40;99.90;;;;;;5060941;28;19936;-80
2022/12/27 06:44:09;;;;;;;;;;;5.30;99.90;;;;;;5061112;28;19960;-79
2022/12/27 06:46:36;;;;;;;;;;;5.30;99.90;;;;;;5061871;28;19936;-79
2022/12/27 06:49:02;;;;;;;;;;;5.30;99.90;;;;;;5054003;28;20321;-79
2022/12/27 06:51:29;;;;;;;;;;;5.30;99.90;;;;;;5057773;28;19936;-80
2022/12/27 06:53:57;;;;;;;;;;;5.30;99.90;;;;;;5057573;28;19939;-78
2022/12/27 06:56:24;;;;;;;;;;;5.30;99.90;;;;;;5058045;28;19928;-79
2022/12/27 06:58:50;;;;;;;;;;;5.30;99.90;;;;;;5062300;28;19939;-78
2022/12/27 07:01:18;;;;;;;;;;;5.30;99.90;;;;;;5047983;28;19933;-79
2022/12/27 07:03:48;;;;;;;;;;;5.30;99.90;;;;;;5046999;28;19943;-79
2022/12/27 07:06:14;;;;;;;;;;;5.30;99.90;;;;;;5051703;28;19936;-80
2022/12/27 07:08:41;;;;;;;;;;;5.20;99.90;;;;;;5044203;28;19932;-77
2022/12/27 07:11:10;;;;;;;;;;;5.20;99.90;;;;;;5042323;28;19932;-79
2022/12/27 07:13:38;;;;;;;;;;;5.20;99.90;;;;;;5046573;28;20727;-81
2022/12/27 07:16:05;;;;;;;;;;;5.20;99.90;;;;;;5043085;28;19935;-81
2022/12/27 07:18:31;;;;;;;;;;;5.20;99.90;;;;;;5046213;28;19932;-78
2022/12/27 07:20:58;;;;;;;;;;;5.20;99.90;;;;;;5043797;28;19936;-79
2022/12/27 07:23:24;;;;;;;;;;;5.20;99.90;;;;;;5056319;28;19936;-80
2022/12/27 07:25:51;;;;;;;;;;;5.20;99.90;;;;;;5043446;28;19932;-80
2022/12/27 07:28:19;;;;;;;;;;;5.20;99.90;;;;;;5044795;28;20421;-79
2022/12/27 07:30:45;;;;;;;;;;;5.20;99.90;;;;;;5046292;28;21853;-81
2022/12/27 07:33:12;;;;;;;;;;;5.10;99.90;;;;;;5047276;28;19936;-80
2022/12/27 07:35:38;;;;;;;;;;;5.10;99.90;;;;;;5046751;28;19932;-78
2022/12/27 07:38:05;;;;;;;;;;;5.10;99.90;;;;;;5059167;28;19928;-79
2022/12/27 07:40:31;;;;;;;;;;;5.10;99.90;;;;;;5056733;28;19936;-77
2022/12/27 07:42:58;;;;;;;;;;;5.10;99.90;;;;;;5052596;28;19940;-79
2022/12/27 07:45:26;;;;;;;;;;;5.10;99.90;;;;;;5041776;28;19932;-79
2022/12/27 07:47:52;;;;;;;;;;;5.10;99.90;;;;;;5044341;28;19932;-77
2022/12/27 07:50:19;;;;;;;;;;;5.10;99.90;;;;;;5044159;28;19932;-78
2022/12/27 07:52:45;;;;;;;;;;;5.10;99.90;;;;;;5047232;28;19940;-77
2022/12/27 07:55:12;;;;;;;;;;;5.10;99.90;;;;;;5048687;28;19939;-78
2022/12/27 07:57:39;;;;;;;;;;;5.10;99.90;;;;;;5042802;28;19932;-80
2022/12/27 08:00:06;;;;;;;;;;;5.10;99.90;;;;;;5047691;28;20390;-77
2022/12/27 08:02:34;;;;;;;;;;;5.10;99.90;;;;;;5053594;28;20359;-79
2022/12/27 08:05:00;;;;;;;;;;;5.10;99.90;;;;;;5059914;28;20673;-79
2022/12/27 08:07:27;;;;;;;;;;;5.10;99.90;;;;;;5061241;28;19937;-78
2022/12/27 08:09:53;;;;;;;;;;;5.10;99.90;;;;;;5043782;28;19936;-80
2022/12/27 08:12:20;;;;;;;;;;;5.00;99.90;;;;;;5046774;28;19933;-79
2022/12/27 08:14:46;;;;;;;;;;;5.00;99.90;;;;;;5044740;28;19932;-77
2022/12/27 08:17:15;;;;;;;;;;;5.10;99.90;;;;;;5056772;28;19935;-77
2022/12/27 08:19:43;;;;;;;;;;;5.00;99.90;;;;;;5059333;28;20762;-81
2022/12/27 08:22:10;;;;;;;;;;;5.00;99.90;;;;;;5061270;28;20295;-78
2022/12/27 08:24:39;;;;;;;;;;;5.00;99.90;;;;;;5062899;28;20449;-78
2022/12/27 08:27:06;;;;;;;;;;;5.00;99.90;;;;;;5047377;28;20110;-78
2022/12/27 08:29:32;;;;;;;;;;;5.00;99.90;;;;;;5058439;28;19929;-78
2022/12/27 08:31:59;;;;;;;;;;;5.00;99.90;;;;;;5054345;28;19932;-79
2022/12/27 08:34:26;;;;;;;;;;;5.00;99.90;;;;;;5046616;28;19997;-77
2022/12/27 08:36:53;;;;;;;;;;;5.00;99.90;;;;;;5049866;28;19955;-72
2022/12/27 08:39:20;;;;;;;;;;;5.00;99.90;;;;;;5067848;28;20397;-73
2022/12/27 08:41:47;;;;;;;;;;;5.00;99.90;;;;;;5063275;28;20390;-73
2022/12/27 08:44:13;;;;;;;;;;;5.00;99.90;;;;;;5068814;28;19978;-73
2022/12/27 08:46:40;;;;;;;;;;;5.00;99.90;;;;;;5063340;28;19943;-73
2022/12/27 08:49:07;;;;;;;;;;;5.00;99.90;;;;;;5055804;28;19936;-73
2022/12/27 08:51:33;;;;;;;;;;;4.90;99.90;;;;;;5038570;23;20012;-71
2022/12/27 08:54:01;;;;;;;;;;;5.00;99.90;;;;;;5005813;28;19928;-72
2022/12/27 08:56:27;;;;;;;;;;;5.00;99.90;;;;;;5006316;28;19938;-73
2022/12/27 08:58:54;;;;;;;;;;;5.00;99.90;;;;;;5014402;28;19933;-72
2022/12/27 09:01:21;;;;;;;;;;;4.90;99.90;;;;;;5008698;28;19929;-72
2022/12/27 09:03:47;;;;;;;;;;;4.90;99.90;;;;;;5008209;28;19929;-70
2022/12/27 09:06:15;;;;;;;;;;;4.90;99.90;;;;;;5008646;28;19937;-72
2022/12/27 09:08:42;;;;;;;;;;;5.00;99.90;;;;;;5005631;28;19937;-71
2022/12/27 09:11:11;;;;;;;;;;;5.00;99.90;;;;;;5007913;28;19929;-71
2022/12/27 09:13:38;;;;;;;;;;;4.90;99.90;;;;;;5003654;28;19933;-72
2022/12/27 09:16:05;;;;;;;;;;;4.90;99.90;;;;;;5003464;28;19940;-71
2022/12/27 09:18:32;;;;;;;;;;;5.00;99.90;;;;;;5006624;28;19952;-71
2022/12/27 09:21:02;;;;;;;;;;;5.00;99.90;;;;;;5005480;28;19979;-71
2022/12/27 09:23:29;;;;;;;;;;;5.00;99.90;;;;;;5006663;28;19933;-72
2022/12/27 09:25:56;;;;;;;;;;;5.00;99.90;;;;;;5003540;28;20766;-71
2022/12/27 09:28:24;;;;;;;;;;;5.00;99.90;;;;;;5007953;28;19929;-72
2022/12/27 09:30:50;;;;;;;;;;;5.00;99.90;;;;;;5009156;28;20461;-72
2022/12/27 09:33:17;;;;;;;;;;;5.00;99.90;;;;;;5011032;28;19933;-71
2022/12/27 09:35:44;;;;;;;;;;;5.00;99.90;;;;;;5007552;28;20482;-71
2022/12/27 09:38:10;;;;;;;;;;;5.00;99.90;;;;;;5008166;28;19929;-73
2022/12/27 09:40:37;;;;;;;;;;;5.00;99.90;;;;;;5009549;28;19929;-71
2022/12/27 09:43:06;;;;;;;;;;;5.00;99.90;;;;;;5006007;28;19933;-72
2022/12/27 09:45:36;;;;;;;;;;;5.00;99.90;;;;;;5006651;28;19929;-73
2022/12/27 09:48:06;;;;;;;;;;;5.00;99.90;;;;;;5002779;28;20382;-72
2022/12/27 09:50:34;;;;;;;;;;;5.00;99.90;;;;;;5010000;28;20353;-72
2022/12/27 09:53:04;;;;;;;;;;;5.00;99.90;;;;;;5007648;28;20024;-73
2022/12/27 09:55:38;;;;;;;;;;;5.00;99.90;;;;;;5006167;28;20417;-72
2022/12/27 09:58:13;;;;;;;;;;;5.00;99.90;;;;;;5005631;28;19933;-71
2022/12/27 10:00:44;;;;;;;;;;;5.00;99.90;;;;;;5013300;28;19937;-71
2022/12/27 10:03:11;;;;;;;;;;;5.00;99.90;;;;;;5002776;28;20032;-72
2022/12/27 10:05:38;;;;;;;;;;;5.10;99.90;;;;;;5006227;28;20016;-70
2022/12/27 10:08:12;;;;;;;;;;;5.00;99.90;;;;;;5016103;28;20024;-71
2022/12/27 10:10:42;;;;;;;;;;;5.10;99.90;;;;;;5012579;28;19934;-73
2022/12/27 10:13:17;;;;;;;;;;;5.00;99.90;;;;;;5004616;28;19937;-72
2022/12/27 10:15:48;;;;;;;;;;;5.10;99.90;;;;;;5003639;28;19937;-71
2022/12/27 10:18:20;;;;;;;;;;;5.10;99.90;;;;;;4999980;28;20314;-77
2022/12/27 10:20:52;;;;;;;;;;;5.10;99.90;;;;;;5006288;28;20001;-78
2022/12/27 10:23:20;;;;;;;;;;;5.10;99.90;;;;;;5005865;28;19948;-78
2022/12/27 10:25:49;;;;;;;;;;;5.10;99.90;;;;;;5006891;28;19933;-77
2022/12/27 10:28:17;;;;;;;;;;;5.10;99.90;;;;;;5001757;28;20040;-76
2022/12/27 10:30:44;;;;;;;;;;;5.10;99.90;;;;;;5005177;28;19930;-77
2022/12/27 10:33:12;;;;;;;;;;;5.10;99.90;;;;;;5000105;28;19939;-78
2022/12/27 10:35:40;;;;;;;;;;;5.20;99.90;;;;;;4997315;28;19937;-78
2022/12/27 10:38:10;;;;;;;;;;;5.10;99.90;;;;;;5009834;28;19930;-79
2022/12/27 10:40:39;;;;;;;;;;;5.20;99.90;;;;;;5004793;28;20017;-76
2022/12/27 10:43:11;;;;;;;;;;;5.20;99.90;;;;;;5006412;28;19936;-77
2022/12/27 10:45:41;;;;;;;;;;;5.20;99.90;;;;;;5006551;28;19929;-78
2022/12/27 10:48:13;;;;;;;;;;;5.20;99.90;;;;;;5007254;28;19933;-79
2022/12/27 10:50:44;;;;;;;;;;;5.20;99.90;;;;;;5008112;28;19933;-78
2022/12/27 10:53:25;;;;;;;;;;;5.20;99.90;;;;;;5010164;28;19968;-79
2022/12/27 10:56:04;;;;;;;;;;;5.20;99.90;;;;;;5006566;28;20350;-78
2022/12/27 10:58:35;;;;;;;;;;;5.30;99.90;;;;;;5002571;28;20398;-78
2022/12/27 11:01:02;;;;;;;;;;;5.30;99.90;;;;;;5001964;28;19930;-79
2022/12/27 11:03:29;;;;;;;;;;;5.30;99.90;;;;;;5003448;28;19933;-77
2022/12/27 11:06:01;;;;;;;;;;;5.30;99.90;;;;;;5005812;28;19937;-79
2022/12/27 11:08:28;;;;;;;;;;;5.30;99.90;;;;;;5003871;28;20557;-79
2022/12/27 11:11:09;;;;;;;;;;;5.30;99.90;;;;;;5006400;28;19937;-77
2022/12/27 11:13:36;;;;;;;;;;;5.40;99.90;;;;;;5006116;28;19937;-77
2022/12/27 11:16:02;;;;;;;;;;;5.40;99.90;;;;;;5001438;28;19941;-78
2022/12/27 11:18:30;;;;;;;;;;;5.40;99.90;;;;;;4998996;28;19940;-78
2022/12/27 11:20:58;;;;;;;;;;;5.40;99.90;;;;;;5006498;28;19928;-79
2022/12/27 11:23:29;;;;;;;;;;;5.40;99.90;;;;;;5006699;28;19985;-78
2022/12/27 11:25:57;;;;;;;;;;;5.40;99.90;;;;;;5000325;28;19936;-78
2022/12/27 11:28:28;;;;;;;;;;;5.50;99.90;;;;;;5002747;28;19929;-78
2022/12/27 11:30:56;;;;;;;;;;;5.50;99.90;;;;;;5005425;28;19929;-77
2022/12/27 11:33:24;;;;;;;;;;;5.50;99.90;;;;;;5006077;28;19930;-79
2022/12/27 11:35:52;;;;;;;;;;;5.50;99.90;;;;;;5004042;28;19929;-76
2022/12/27 11:38:22;;;;;;;;;;;5.50;99.90;;;;;;5007775;28;19940;-77
2022/12/27 11:40:54;;;;;;;;;;;5.50;99.90;;;;;;5005887;28;19933;-77
2022/12/27 11:43:26;;;;;;;;;;;5.60;99.90;;;;;;5009887;28;19929;-78
2022/12/27 11:45:54;;;;;;;;;;;5.50;99.90;;;;;;5007364;28;20341;-78
2022/12/27 11:48:24;;;;;;;;;;;5.60;99.90;;;;;;5009096;28;19986;-77
2022/12/27 11:50:57;;;;;;;;;;;5.60;99.90;;;;;;5005901;28;20402;-79
2022/12/27 11:53:38;;;;;;;;;;;5.60;99.90;;;;;;5006416;28;20417;-79
2022/12/27 11:56:19;;;;;;;;;;;5.60;99.90;;;;;;5003991;28;20015;-78
2022/12/27 11:58:52;;;;;;;;;;;5.60;99.90;;;;;;5003515;28;19961;-78
2022/12/27 12:01:36;;;;;;;;;;;5.60;99.90;;;;;;5003553;28;20506;-76
2022/12/27 12:04:10;;;;;;;;;;;5.60;99.90;;;;;;5008405;28;19936;-78
2022/12/27 12:06:43;;;;;;;;;;;5.70;99.90;;;;;;5012053;28;19975;-77
2022/12/27 12:09:23;;;;;;;;;;;5.60;99.90;;;;;;5014446;28;19934;-76
2022/12/27 12:11:58;;;;;;;;;;;5.70;99.90;;;;;;5011569;28;19934;-78
2022/12/27 12:14:34;;;;;;;;;;;5.70;99.90;;;;;;5005304;28;19940;-76
2022/12/27 12:17:07;;;;;;;;;;;5.70;99.90;;;;;;5002972;28;20021;-77
2022/12/27 12:19:41;;;;;;;;;;;5.70;99.90;;;;;;5009967;28;20303;-78
2022/12/27 12:22:17;;;;;;;;;;;5.70;99.90;;;;;;5010833;28;19976;-78
2022/12/27 12:24:56;;;;;;;;;;;5.80;99.90;;;;;;5009234;28;20339;-76
2022/12/27 12:27:41;;;;;;;;;;;5.70;99.90;;;;;;5005783;28;19929;-78
2022/12/27 12:30:32;;;;;;;;;;;5.70;99.90;;;;;;5002848;28;20009;-79
2022/12/27 12:33:06;;;;;;;;;;;5.80;99.90;;;;;;5004894;28;19933;-78
2022/12/27 12:35:40;;;;;;;;;;;5.80;99.90;;;;;;5010546;28;20523;-79
2022/12/27 12:38:21;;;;;;;;;;;5.80;99.90;;;;;;5011752;28;19959;-79
2022/12/27 12:41:04;;;;;;;;;;;5.80;99.90;;;;;;5008653;28;20603;-79
2022/12/27 12:43:46;;;;;;;;;;;5.80;99.90;;;;;;5007752;28;19956;-77
2022/12/27 12:46:16;;;;;;;;;;;5.80;99.90;;;;;;5007701;28;19933;-77
2022/12/27 12:49:03;;;;;;;;;;;5.80;99.90;;;;;;5007065;28;19930;-78
2022/12/27 12:51:55;;;;;;;;;;;5.90;99.90;;;;;;5007376;28;19964;-78
2022/12/27 12:54:29;;;;;;;;;;;5.90;99.90;;;;;;5008437;28;19930;-78
2022/12/27 12:57:05;;;;;;;;;;;5.90;99.90;;;;;;5006124;28;19930;-77
2022/12/27 12:59:48;;;;;;;;;;;5.90;99.90;;;;;;5008207;28;19933;-80
2022/12/27 13:02:24;;;;;;;;;;;6.00;99.90;;;;;;5005368;28;19933;-79
2022/12/27 13:05:02;;;;;;;;;;;6.00;99.90;;;;;;5003107;28;19929;-78
2022/12/27 13:07:40;;;;;;;;;;;6.00;99.90;;;;;;5009365;28;19930;-79
2022/12/27 13:10:20;;;;;;;;;;;6.00;99.90;;;;;;5006229;28;19937;-79
2022/12/27 13:12:50;;;;;;;;;;;6.00;99.90;;;;;;5004881;28;19941;-78
2022/12/27 13:15:22;;;;;;;;;;;6.10;99.90;;;;;;5004969;28;19967;-77
2022/12/27 13:17:53;;;;;;;;;;;6.10;99.90;;;;;;5003052;28;19929;-78
2022/12/27 13:20:26;;;;;;;;;;;6.10;99.90;;;;;;5000808;28;20413;-77
2022/12/27 13:22:57;;;;;;;;;;;6.10;99.90;;;;;;5001252;28;19929;-79
2022/12/27 13:25:28;;;;;;;;;;;6.10;99.90;;;;;;4994270;28;19929;-77
2022/12/27 13:27:59;;;;;;;;;;;6.10;99.90;;;;;;4991394;28;20387;-78
2022/12/27 13:30:30;;;;;;;;;;;6.10;99.90;;;;;;4991621;28;20409;-76
2022/12/27 13:33:09;;;;;;;;;;;6.20;99.90;;;;;;4988609;28;19934;-77
2022/12/27 13:35:45;;;;;;;;;;;6.20;99.90;;;;;;4993479;28;19940;-76
2022/12/27 13:38:23;;;;;;;;;;;6.20;99.90;;;;;;4993864;28;19945;-79
2022/12/27 13:41:05;;;;;;;;;;;6.20;99.90;;;;;;5007544;28;19934;-79
2022/12/27 13:43:42;;;;;;;;;;;6.20;99.90;;;;;;5009938;28;19929;-79
2022/12/27 13:46:17;;;;;;;;;;;6.20;99.90;;;;;;4997749;28;20390;-76
2022/12/27 13:48:51;;;;;;;;;;;6.30;99.90;;;;;;5003220;28;21953;-78
2022/12/27 13:51:34;;;;;;;;;;;6.30;99.90;;;;;;4991789;28;19940;-76
2022/12/27 13:54:11;;;;;;;;;;;6.30;99.90;;;;;;4982823;28;20020;-77
2022/12/27 13:56:44;;;;;;;;;;;6.40;99.90;;;;;;4981567;28;19940;-77
2022/12/27 13:59:44;;;;;;;;;;;6.40;99.90;;;;;;4980790;28;19936;-75
2022/12/27 14:02:25;;;;;;;;;;;6.50;99.90;;;;;;4956721;28;19934;-78
2022/12/27 14:04:57;;;;;;;;;;;6.60;99.90;;;;;;4963239;28;19926;-78
2022/12/27 14:07:43;;;;;;;;;;;6.80;99.90;;;;;;4968230;28;19930;-78
2022/12/27 14:10:13;;;;;;;;;;;6.90;99.90;;;;;;4982989;28;20406;-78
2022/12/27 14:12:54;;;;;;;;;;;7.10;99.90;;;;;;4997667;28;19936;-79
2022/12/27 14:15:22;;;;;;;;;;;7.20;99.90;;;;;;4996318;28;19957;-78
2022/12/27 14:17:55;;;;;;;;;;;7.40;99.90;;;;;;4998914;28;19933;-79
2022/12/27 14:20:29;;;;;;;;;;;7.40;99.90;;;;;;4999980;28;20009;-78
2022/12/27 14:23:02;;;;;;;;;;;7.60;99.90;;;;;;5004469;28;20694;-81
2022/12/27 14:25:40;;;;;;;;;;;7.60;99.90;;;;;;5005310;28;19936;-79
2022/12/27 14:28:27;;;;;;;;;;;7.70;99.90;;;;;;5006229;28;19933;-78
2022/12/27 14:31:14;;;;;;;;;;;7.70;99.90;;;;;;4984915;28;19929;-80
2022/12/27 14:33:54;;;;;;;;;;;7.70;99.90;;;;;;5007546;28;19934;-79
2022/12/27 14:36:35;;;;;;;;;;;7.70;99.90;;;;;;5010563;28;19932;-80
2022/12/27 14:39:14;;;;;;;;;;;7.70;99.90;;;;;;5007701;28;20399;-81
2022/12/27 14:41:56;;;;;;;;;;;7.70;99.90;;;;;;5000390;28;19936;-80
2022/12/27 14:44:40;;;;;;;;;;;7.70;99.90;;;;;;4958190;28;20370;-78
2022/12/27 14:47:32;;;;;;;;;;;7.70;99.90;;;;;;5001814;28;20028;-80
2022/12/27 14:50:23;;;;;;;;;;;7.70;99.90;;;;;;5002491;28;19972;-79
2022/12/27 14:53:05;;;;;;;;;;;7.70;99.90;;;;;;4990513;23;19941;-77
2022/12/27 14:55:38;;;;;;;;;;;7.60;99.90;;;;;;5001260;28;19964;-77
2022/12/27 14:58:11;;;;;;;;;;;7.60;99.90;;;;;;5012379;28;19980;-77
2022/12/27 15:00:52;;;;;;;;;;;7.60;99.90;;;;;;5012295;28;19951;-77
2022/12/27 15:03:22;;;;;;;;;;;7.60;99.90;;;;;;5015201;28;20569;-78
2022/12/27 15:05:55;;;;;;;;;;;7.60;99.90;;;;;;5021601;28;20456;-77
2022/12/27 15:08:42;;;;;;;;;;;7.60;99.90;;;;;;5019915;28;19933;-76
2022/12/27 15:11:22;;;;;;;;;;;7.60;99.90;;;;;;5020839;28;19936;-77
2022/12/27 15:13:56;;;;;;;;;;;7.60;99.90;;;;;;5018623;28;21278;-77
2022/12/27 15:16:29;;;;;;;;;;;7.50;99.90;;;;;;5018566;28;19945;-77
2022/12/27 15:19:05;;;;;;;;;;;7.50;99.90;;;;;;5021699;28;19933;-77
2022/12/27 15:21:43;;;;;;;;;;;7.50;99.90;;;;;;5018616;28;19929;-77
2022/12/27 15:24:19;;;;;;;;;;;7.50;99.90;;;;;;5019579;28;19930;-77
2022/12/27 15:26:50;;;;;;;;;;;7.50;99.90;;;;;;5019838;28;19936;-77
2022/12/27 15:29:24;;;;;;;;;;;7.40;99.90;;;;;;5020662;28;19933;-77
2022/12/27 15:31:56;;;;;;;;;;;7.40;99.90;;;;;;5019969;28;20458;-77
2022/12/27 15:34:31;;;;;;;;;;;7.40;99.90;;;;;;5022933;28;20447;-77
2022/12/27 15:36:58;;;;;;;;;;;7.40;99.90;;;;;;5018914;28;19930;-76
2022/12/27 15:39:41;;;;;;;;;;;7.40;99.90;;;;;;5019117;28;19929;-77
2022/12/27 15:42:13;;;;;;;;;;;7.40;99.90;;;;;;5015706;28;19929;-77
2022/12/27 15:44:46;;;;;;;;;;;7.30;99.90;;;;;;5019666;28;19936;-77
2022/12/27 15:47:30;;;;;;;;;;;7.40;99.90;;;;;;5017248;28;19940;-76
2022/12/27 15:50:14;;;;;;;;;;;7.30;99.90;;;;;;5003007;28;20019;-76
2022/12/27 15:52:51;;;;;;;;;;;7.30;99.90;;;;;;5010817;28;20605;-77
2022/12/27 15:55:22;;;;;;;;;;;7.30;99.90;;;;;;5022606;28;19933;-75
2022/12/27 15:58:11;;;;;;;;;;;7.30;99.90;;;;;;5020139;28;19959;-77
2022/12/27 16:00:38;;;;;;;;;;;7.20;99.90;;;;;;5017650;28;19934;-76
2022/12/27 16:03:25;;;;;;;;;;;7.20;99.90;;;;;;5014538;28;19996;-76
2022/12/27 16:05:52;;;;;;;;;;;7.10;99.90;;;;;;5012651;28;19933;-76
2022/12/27 16:08:30;;;;;;;;;;;7.10;99.90;;;;;;5012306;28;19929;-76
2022/12/27 16:10:57;;;;;;;;;;;7.10;99.90;;;;;;5015991;28;19936;-76
2022/12/27 16:13:32;;;;;;;;;;;7.10;99.90;;;;;;5016440;28;20426;-76
2022/12/27 16:15:59;;;;;;;;;;;7.10;99.90;;;;;;5015989;28;19940;-76
2022/12/27 16:18:38;;;;;;;;;;;7.00;99.90;;;;;;5019670;28;19933;-77
2022/12/27 16:21:06;;;;;;;;;;;7.00;99.90;;;;;;5017034;28;20797;-77
2022/12/27 16:23:34;;;;;;;;;;;7.00;99.90;;;;;;5014458;28;19952;-77
2022/12/27 16:26:01;;;;;;;;;;;7.00;99.90;;;;;;5013004;28;19929;-77
2022/12/27 16:28:29;;;;;;;;;;;6.90;99.90;;;;;;5016309;28;19933;-77